sensor_id;sensor_type;location;lat;lon;timestamp;P1;durP1;ratioP1;P2;durP2;ratioP2
75050;SDS011;63628;47.656;11.310;2024-03-07T00:00:51;1.00;;;0.80;;
75050;SDS011;63628;47.656;11.310;2024-03-07T00:03:20;1.50;;;0.88;;
75050;SDS011;63628;47.656;11.310;2024-03-07T00:05:47;1.67;;;0.80;;
75050;SDS011;63628;47.656;11.310;2024-03-07T00:08:14;1.50;;;1.17;;
75050;SDS011;63628;47.656;11.310;2024-03-07T00:10:43;2.23;;;1.00;;
75050;SDS011;63628;47.656;11.310;2024-03-07T00:13:10;3.13;;;1.63;;
75050;SDS011;63628;47.656;11.310;2024-03-07T00:15:37;1.13;;;0.70;;
75050;SDS011;63628;47.656;11.310;2024-03-07T00:18:06;0.82;;;0.75;;
75050;SDS011;63628;47.656;11.310;2024-03-07T00:20:33;1.30;;;0.70;;
75050;SDS011;63628;47.656;11.310;2024-03-07T00:23:01;1.27;;;0.63;;
75050;SDS011;63628;47.656;11.310;2024-03-07T00:25:29;1.87;;;0.80;;
75050;SDS011;63628;47.656;11.310;2024-03-07T00:27:58;1.90;;;1.10;;
75050;SDS011;63628;47.656;11.310;2024-03-07T00:30:29;1.43;;;1.00;;
75050;SDS011;63628;47.656;11.310;2024-03-07T00:32:56;1.30;;;0.87;;
75050;SDS011;63628;47.656;11.310;2024-03-07T00:35:24;1.30;;;0.80;;
75050;SDS011;63628;47.656;11.310;2024-03-07T00:37:51;2.17;;;1.00;;
75050;SDS011;63628;47.656;11.310;2024-03-07T00:40:18;0.90;;;0.63;;
75050;SDS011;63628;47.656;11.310;2024-03-07T00:42:45;1.47;;;0.80;;
75050;SDS011;63628;47.656;11.310;2024-03-07T00:45:13;1.00;;;0.70;;
75050;SDS011;63628;47.656;11.310;2024-03-07T00:47:40;1.60;;;1.07;;
75050;SDS011;63628;47.656;11.310;2024-03-07T00:50:07;1.43;;;0.77;;
75050;SDS011;63628;47.656;11.310;2024-03-07T00:52:35;2.43;;;1.13;;
75050;SDS011;63628;47.656;11.310;2024-03-07T00:55:02;1.40;;;0.90;;
75050;SDS011;63628;47.656;11.310;2024-03-07T00:57:29;1.53;;;0.80;;
75050;SDS011;63628;47.656;11.310;2024-03-07T00:59:56;1.20;;;0.60;;
75050;SDS011;63628;47.656;11.310;2024-03-07T01:02:24;1.33;;;0.70;;
75050;SDS011;63628;47.656;11.310;2024-03-07T01:04:52;1.98;;;0.80;;
75050;SDS011;63628;47.656;11.310;2024-03-07T01:07:19;1.93;;;0.77;;
75050;SDS011;63628;47.656;11.310;2024-03-07T01:09:47;1.17;;;0.80;;
75050;SDS011;63628;47.656;11.310;2024-03-07T01:12:14;1.33;;;0.80;;
75050;SDS011;63628;47.656;11.310;2024-03-07T01:14:41;0.73;;;0.70;;
75050;SDS011;63628;47.656;11.310;2024-03-07T01:17:08;1.20;;;0.90;;
75050;SDS011;63628;47.656;11.310;2024-03-07T01:19:36;1.67;;;0.83;;
75050;SDS011;63628;47.656;11.310;2024-03-07T01:22:04;1.20;;;0.98;;
75050;SDS011;63628;47.656;11.310;2024-03-07T01:24:31;2.53;;;1.00;;
75050;SDS011;63628;47.656;11.310;2024-03-07T01:26:59;1.30;;;0.80;;
75050;SDS011;63628;47.656;11.310;2024-03-07T01:29:26;1.17;;;0.67;;
75050;SDS011;63628;47.656;11.310;2024-03-07T01:31:54;1.00;;;0.83;;
75050;SDS011;63628;47.656;11.310;2024-03-07T01:34:20;1.60;;;1.00;;
75050;SDS011;63628;47.656;11.310;2024-03-07T01:36:48;1.83;;;0.80;;
75050;SDS011;63628;47.656;11.310;2024-03-07T01:39:15;1.13;;;0.80;;
75050;SDS011;63628;47.656;11.310;2024-03-07T01:41:42;1.20;;;0.80;;
75050;SDS011;63628;47.656;11.310;2024-03-07T01:44:09;1.10;;;0.70;;
75050;SDS011;63628;47.656;11.310;2024-03-07T01:46:35;2.27;;;0.70;;
75050;SDS011;63628;47.656;11.310;2024-03-07T01:49:02;1.33;;;0.80;;
75050;SDS011;63628;47.656;11.310;2024-03-07T01:51:29;1.33;;;0.90;;
75050;SDS011;63628;47.656;11.310;2024-03-07T01:53:57;1.30;;;0.60;;
75050;SDS011;63628;47.656;11.310;2024-03-07T01:56:24;1.03;;;0.83;;
75050;SDS011;63628;47.656;11.310;2024-03-07T01:58:51;1.50;;;0.80;;
75050;SDS011;63628;47.656;11.310;2024-03-07T02:01:19;0.83;;;0.53;;
75050;SDS011;63628;47.656;11.310;2024-03-07T02:03:46;0.70;;;0.53;;
75050;SDS011;63628;47.656;11.310;2024-03-07T02:06:13;1.20;;;0.70;;
75050;SDS011;63628;47.656;11.310;2024-03-07T02:08:40;0.93;;;0.60;;
75050;SDS011;63628;47.656;11.310;2024-03-07T02:11:08;1.33;;;0.90;;
75050;SDS011;63628;47.656;11.310;2024-03-07T02:13:36;0.65;;;0.57;;
75050;SDS011;63628;47.656;11.310;2024-03-07T02:16:03;2.07;;;1.10;;
75050;SDS011;63628;47.656;11.310;2024-03-07T02:18:30;1.23;;;0.70;;
75050;SDS011;63628;47.656;11.310;2024-03-07T02:20:58;0.83;;;0.80;;
75050;SDS011;63628;47.656;11.310;2024-03-07T02:23:25;0.97;;;0.80;;
75050;SDS011;63628;47.656;11.310;2024-03-07T02:25:53;0.90;;;0.57;;
75050;SDS011;63628;47.656;11.310;2024-03-07T02:28:20;1.00;;;0.70;;
75050;SDS011;63628;47.656;11.310;2024-03-07T02:30:46;2.17;;;0.83;;
75050;SDS011;63628;47.656;11.310;2024-03-07T02:33:13;0.93;;;0.60;;
75050;SDS011;63628;47.656;11.310;2024-03-07T02:35:41;1.00;;;0.80;;
75050;SDS011;63628;47.656;11.310;2024-03-07T02:38:09;0.60;;;0.57;;
75050;SDS011;63628;47.656;11.310;2024-03-07T02:40:36;0.60;;;0.50;;
75050;SDS011;63628;47.656;11.310;2024-03-07T02:43:03;0.77;;;0.57;;
75050;SDS011;63628;47.656;11.310;2024-03-07T02:45:31;0.73;;;0.60;;
75050;SDS011;63628;47.656;11.310;2024-03-07T02:47:58;0.60;;;0.50;;
75050;SDS011;63628;47.656;11.310;2024-03-07T02:50:25;0.60;;;0.43;;
75050;SDS011;63628;47.656;11.310;2024-03-07T02:52:52;1.13;;;0.70;;
75050;SDS011;63628;47.656;11.310;2024-03-07T02:55:20;1.83;;;1.37;;
75050;SDS011;63628;47.656;11.310;2024-03-07T02:57:47;0.83;;;0.50;;
75050;SDS011;63628;47.656;11.310;2024-03-07T03:00:14;0.70;;;0.50;;
75050;SDS011;63628;47.656;11.310;2024-03-07T03:02:53;0.77;;;0.70;;
75050;SDS011;63628;47.656;11.310;2024-03-07T03:05:20;0.87;;;0.67;;
75050;SDS011;63628;47.656;11.310;2024-03-07T03:07:46;1.17;;;0.90;;
75050;SDS011;63628;47.656;11.310;2024-03-07T03:10:21;0.83;;;0.57;;
75050;SDS011;63628;47.656;11.310;2024-03-07T03:12:53;1.17;;;0.70;;
75050;SDS011;63628;47.656;11.310;2024-03-07T03:15:20;0.80;;;0.53;;
75050;SDS011;63628;47.656;11.310;2024-03-07T03:17:47;0.70;;;0.43;;
75050;SDS011;63628;47.656;11.310;2024-03-07T03:20:14;1.10;;;0.70;;
75050;SDS011;63628;47.656;11.310;2024-03-07T03:22:51;1.40;;;0.80;;
75050;SDS011;63628;47.656;11.310;2024-03-07T03:25:40;0.50;;;0.43;;
75050;SDS011;63628;47.656;11.310;2024-03-07T03:28:07;0.75;;;0.63;;
75050;SDS011;63628;47.656;11.310;2024-03-07T03:30:36;0.90;;;0.60;;
75050;SDS011;63628;47.656;11.310;2024-03-07T03:33:04;0.50;;;0.50;;
75050;SDS011;63628;47.656;11.310;2024-03-07T03:35:32;1.60;;;0.50;;
75050;SDS011;63628;47.656;11.310;2024-03-07T03:37:59;0.60;;;0.40;;
75050;SDS011;63628;47.656;11.310;2024-03-07T03:40:26;0.90;;;0.67;;
75050;SDS011;63628;47.656;11.310;2024-03-07T03:42:55;0.77;;;0.50;;
75050;SDS011;63628;47.656;11.310;2024-03-07T03:45:21;0.60;;;0.50;;
75050;SDS011;63628;47.656;11.310;2024-03-07T03:47:48;0.47;;;0.47;;
75050;SDS011;63628;47.656;11.310;2024-03-07T03:50:15;0.60;;;0.33;;
75050;SDS011;63628;47.656;11.310;2024-03-07T03:52:42;0.67;;;0.50;;
75050;SDS011;63628;47.656;11.310;2024-03-07T03:55:09;1.00;;;0.50;;
75050;SDS011;63628;47.656;11.310;2024-03-07T03:57:36;0.50;;;0.40;;
75050;SDS011;63628;47.656;11.310;2024-03-07T04:00:06;0.87;;;0.63;;
75050;SDS011;63628;47.656;11.310;2024-03-07T04:02:39;0.67;;;0.50;;
75050;SDS011;63628;47.656;11.310;2024-03-07T04:05:07;0.70;;;0.60;;
75050;SDS011;63628;47.656;11.310;2024-03-07T04:07:35;0.90;;;0.70;;
75050;SDS011;63628;47.656;11.310;2024-03-07T04:10:03;0.70;;;0.57;;
75050;SDS011;63628;47.656;11.310;2024-03-07T04:12:33;0.90;;;0.60;;
75050;SDS011;63628;47.656;11.310;2024-03-07T04:15:00;0.73;;;0.60;;
75050;SDS011;63628;47.656;11.310;2024-03-07T04:17:28;1.00;;;0.60;;
75050;SDS011;63628;47.656;11.310;2024-03-07T04:19:55;0.80;;;0.53;;
75050;SDS011;63628;47.656;11.310;2024-03-07T04:22:24;0.60;;;0.60;;
75050;SDS011;63628;47.656;11.310;2024-03-07T04:24:51;1.20;;;0.70;;
75050;SDS011;63628;47.656;11.310;2024-03-07T04:27:21;1.00;;;0.70;;
75050;SDS011;63628;47.656;11.310;2024-03-07T04:29:52;0.67;;;0.57;;
75050;SDS011;63628;47.656;11.310;2024-03-07T04:32:19;1.10;;;0.60;;
75050;SDS011;63628;47.656;11.310;2024-03-07T04:34:47;0.70;;;0.67;;
75050;SDS011;63628;47.656;11.310;2024-03-07T04:37:13;0.90;;;0.70;;
75050;SDS011;63628;47.656;11.310;2024-03-07T04:39:40;0.80;;;0.60;;
75050;SDS011;63628;47.656;11.310;2024-03-07T04:42:08;0.60;;;0.60;;
75050;SDS011;63628;47.656;11.310;2024-03-07T04:44:38;0.67;;;0.60;;
75050;SDS011;63628;47.656;11.310;2024-03-07T04:47:05;0.73;;;0.60;;
75050;SDS011;63628;47.656;11.310;2024-03-07T04:49:33;1.27;;;0.83;;
75050;SDS011;63628;47.656;11.310;2024-03-07T04:52:01;0.50;;;0.50;;
75050;SDS011;63628;47.656;11.310;2024-03-07T04:54:29;0.70;;;0.60;;
75050;SDS011;63628;47.656;11.310;2024-03-07T04:56:58;0.60;;;0.60;;
75050;SDS011;63628;47.656;11.310;2024-03-07T04:59:25;3.70;;;2.87;;
75050;SDS011;63628;47.656;11.310;2024-03-07T05:01:52;3.87;;;3.27;;
75050;SDS011;63628;47.656;11.310;2024-03-07T05:04:18;3.93;;;3.13;;
75050;SDS011;63628;47.656;11.310;2024-03-07T05:06:45;4.17;;;3.50;;
75050;SDS011;63628;47.656;11.310;2024-03-07T05:09:15;1.42;;;0.90;;
75050;SDS011;63628;47.656;11.310;2024-03-07T05:11:55;0.60;;;0.53;;
75050;SDS011;63628;47.656;11.310;2024-03-07T05:14:22;1.07;;;0.80;;
75050;SDS011;63628;47.656;11.310;2024-03-07T05:16:52;1.42;;;0.90;;
75050;SDS011;63628;47.656;11.310;2024-03-07T05:21:58;1.30;;;0.90;;
75050;SDS011;63628;47.656;11.310;2024-03-07T05:24:27;1.17;;;0.80;;
75050;SDS011;63628;47.656;11.310;2024-03-07T05:26:53;1.37;;;0.80;;
75050;SDS011;63628;47.656;11.310;2024-03-07T05:29:20;1.17;;;0.87;;
75050;SDS011;63628;47.656;11.310;2024-03-07T05:31:47;1.40;;;0.90;;
75050;SDS011;63628;47.656;11.310;2024-03-07T05:34:14;1.43;;;0.90;;
75050;SDS011;63628;47.656;11.310;2024-03-07T05:36:41;1.03;;;0.90;;
75050;SDS011;63628;47.656;11.310;2024-03-07T05:39:12;0.80;;;0.80;;
75050;SDS011;63628;47.656;11.310;2024-03-07T05:41:42;1.10;;;0.73;;
75050;SDS011;63628;47.656;11.310;2024-03-07T05:44:11;1.13;;;0.87;;
75050;SDS011;63628;47.656;11.310;2024-03-07T05:46:39;1.00;;;0.90;;
75050;SDS011;63628;47.656;11.310;2024-03-07T05:49:13;1.00;;;0.90;;
75050;SDS011;63628;47.656;11.310;2024-03-07T05:51:40;1.17;;;0.87;;
75050;SDS011;63628;47.656;11.310;2024-03-07T05:54:12;1.13;;;0.87;;
75050;SDS011;63628;47.656;11.310;2024-03-07T05:56:40;1.10;;;0.80;;
75050;SDS011;63628;47.656;11.310;2024-03-07T05:59:08;1.43;;;0.90;;
75050;SDS011;63628;47.656;11.310;2024-03-07T06:01:38;1.87;;;1.10;;
75050;SDS011;63628;47.656;11.310;2024-03-07T06:04:06;1.63;;;1.00;;
75050;SDS011;63628;47.656;11.310;2024-03-07T06:06:33;0.93;;;0.80;;
75050;SDS011;63628;47.656;11.310;2024-03-07T06:09:03;1.40;;;0.87;;
75050;SDS011;63628;47.656;11.310;2024-03-07T06:11:34;0.90;;;0.60;;
75050;SDS011;63628;47.656;11.310;2024-03-07T06:14:03;1.73;;;1.33;;
75050;SDS011;63628;47.656;11.310;2024-03-07T06:16:30;1.40;;;0.97;;
75050;SDS011;63628;47.656;11.310;2024-03-07T06:18:59;1.13;;;0.83;;
75050;SDS011;63628;47.656;11.310;2024-03-07T06:21:26;0.83;;;0.70;;
75050;SDS011;63628;47.656;11.310;2024-03-07T06:23:53;1.10;;;1.00;;
75050;SDS011;63628;47.656;11.310;2024-03-07T06:26:25;1.57;;;1.17;;
75050;SDS011;63628;47.656;11.310;2024-03-07T06:29:05;0.70;;;0.70;;
75050;SDS011;63628;47.656;11.310;2024-03-07T06:31:33;1.02;;;0.75;;
75050;SDS011;63628;47.656;11.310;2024-03-07T06:34:00;1.57;;;1.10;;
75050;SDS011;63628;47.656;11.310;2024-03-07T06:36:28;1.70;;;1.00;;
75050;SDS011;63628;47.656;11.310;2024-03-07T06:38:54;1.53;;;1.20;;
75050;SDS011;63628;47.656;11.310;2024-03-07T06:41:21;1.17;;;0.80;;
75050;SDS011;63628;47.656;11.310;2024-03-07T06:43:48;1.07;;;0.80;;
75050;SDS011;63628;47.656;11.310;2024-03-07T06:46:17;1.23;;;0.80;;
75050;SDS011;63628;47.656;11.310;2024-03-07T06:48:46;0.97;;;0.80;;
75050;SDS011;63628;47.656;11.310;2024-03-07T06:51:13;1.40;;;1.10;;
75050;SDS011;63628;47.656;11.310;2024-03-07T06:53:40;1.33;;;1.10;;
75050;SDS011;63628;47.656;11.310;2024-03-07T06:56:06;0.90;;;0.80;;
75050;SDS011;63628;47.656;11.310;2024-03-07T06:58:33;1.80;;;1.10;;
75050;SDS011;63628;47.656;11.310;2024-03-07T07:01:00;1.30;;;1.00;;
75050;SDS011;63628;47.656;11.310;2024-03-07T07:03:29;1.47;;;1.00;;
75050;SDS011;63628;47.656;11.310;2024-03-07T07:05:55;0.70;;;0.60;;
75050;SDS011;63628;47.656;11.310;2024-03-07T07:08:22;1.17;;;1.00;;
75050;SDS011;63628;47.656;11.310;2024-03-07T07:10:50;1.10;;;1.00;;
75050;SDS011;63628;47.656;11.310;2024-03-07T07:13:16;1.67;;;1.20;;
75050;SDS011;63628;47.656;11.310;2024-03-07T07:15:43;1.97;;;1.27;;
75050;SDS011;63628;47.656;11.310;2024-03-07T07:18:11;6.37;;;3.57;;
75050;SDS011;63628;47.656;11.310;2024-03-07T07:20:41;11.13;;;5.93;;
75050;SDS011;63628;47.656;11.310;2024-03-07T07:23:08;2.50;;;1.30;;
75050;SDS011;63628;47.656;11.310;2024-03-07T07:25:35;1.20;;;1.00;;
75050;SDS011;63628;47.656;11.310;2024-03-07T07:28:02;1.90;;;1.20;;
75050;SDS011;63628;47.656;11.310;2024-03-07T07:30:34;7.07;;;3.70;;
75050;SDS011;63628;47.656;11.310;2024-03-07T07:33:00;1.07;;;0.80;;
75050;SDS011;63628;47.656;11.310;2024-03-07T07:35:27;2.23;;;1.20;;
75050;SDS011;63628;47.656;11.310;2024-03-07T07:37:56;13.73;;;6.73;;
75050;SDS011;63628;47.656;11.310;2024-03-07T07:40:23;4.20;;;2.30;;
75050;SDS011;63628;47.656;11.310;2024-03-07T07:42:51;14.03;;;7.27;;
75050;SDS011;63628;47.656;11.310;2024-03-07T07:45:19;13.83;;;6.73;;
75050;SDS011;63628;47.656;11.310;2024-03-07T07:47:48;15.60;;;8.37;;
75050;SDS011;63628;47.656;11.310;2024-03-07T07:50:16;11.07;;;6.47;;
75050;SDS011;63628;47.656;11.310;2024-03-07T07:52:45;10.30;;;5.72;;
75050;SDS011;63628;47.656;11.310;2024-03-07T07:57:43;10.23;;;5.47;;
75050;SDS011;63628;47.656;11.310;2024-03-07T08:00:12;2.93;;;1.80;;
75050;SDS011;63628;47.656;11.310;2024-03-07T08:02:48;3.57;;;1.90;;
75050;SDS011;63628;47.656;11.310;2024-03-07T08:05:16;8.27;;;3.90;;
75050;SDS011;63628;47.656;11.310;2024-03-07T08:07:44;11.00;;;5.30;;
75050;SDS011;63628;47.656;11.310;2024-03-07T08:10:12;4.60;;;2.70;;
75050;SDS011;63628;47.656;11.310;2024-03-07T08:12:40;9.57;;;5.10;;
75050;SDS011;63628;47.656;11.310;2024-03-07T08:15:09;13.47;;;6.60;;
75050;SDS011;63628;47.656;11.310;2024-03-07T08:17:40;17.27;;;7.57;;
75050;SDS011;63628;47.656;11.310;2024-03-07T08:20:13;15.83;;;7.87;;
75050;SDS011;63628;47.656;11.310;2024-03-07T08:22:40;15.10;;;7.13;;
75050;SDS011;63628;47.656;11.310;2024-03-07T08:25:09;14.90;;;7.97;;
75050;SDS011;63628;47.656;11.310;2024-03-07T08:27:36;13.60;;;6.67;;
75050;SDS011;63628;47.656;11.310;2024-03-07T08:30:05;16.53;;;7.93;;
75050;SDS011;63628;47.656;11.310;2024-03-07T08:35:03;17.08;;;8.60;;
75050;SDS011;63628;47.656;11.310;2024-03-07T08:37:33;20.90;;;9.23;;
75050;SDS011;63628;47.656;11.310;2024-03-07T08:40:01;23.13;;;10.50;;
75050;SDS011;63628;47.656;11.310;2024-03-07T08:42:32;26.75;;;11.23;;
75050;SDS011;63628;47.656;11.310;2024-03-07T08:45:00;23.73;;;11.73;;
75050;SDS011;63628;47.656;11.310;2024-03-07T08:47:29;30.60;;;13.57;;
75050;SDS011;63628;47.656;11.310;2024-03-07T08:49:57;31.30;;;11.50;;
75050;SDS011;63628;47.656;11.310;2024-03-07T08:52:24;24.97;;;11.07;;
75050;SDS011;63628;47.656;11.310;2024-03-07T08:54:51;27.27;;;12.07;;
75050;SDS011;63628;47.656;11.310;2024-03-07T08:57:19;27.13;;;11.27;;
75050;SDS011;63628;47.656;11.310;2024-03-07T08:59:48;25.07;;;11.47;;
75050;SDS011;63628;47.656;11.310;2024-03-07T09:02:15;19.40;;;9.87;;
75050;SDS011;63628;47.656;11.310;2024-03-07T09:04:43;12.93;;;6.00;;
75050;SDS011;63628;47.656;11.310;2024-03-07T09:07:10;22.07;;;11.07;;
75050;SDS011;63628;47.656;11.310;2024-03-07T09:09:36;21.23;;;10.00;;
75050;SDS011;63628;47.656;11.310;2024-03-07T09:12:04;20.47;;;10.23;;
75050;SDS011;63628;47.656;11.310;2024-03-07T09:14:31;19.57;;;10.13;;
75050;SDS011;63628;47.656;11.310;2024-03-07T09:16:58;19.57;;;9.33;;
75050;SDS011;63628;47.656;11.310;2024-03-07T09:19:25;23.20;;;9.70;;
75050;SDS011;63628;47.656;11.310;2024-03-07T09:21:53;24.53;;;12.17;;
75050;SDS011;63628;47.656;11.310;2024-03-07T09:24:20;22.33;;;9.80;;
75050;SDS011;63628;47.656;11.310;2024-03-07T09:26:50;24.83;;;10.27;;
75050;SDS011;63628;47.656;11.310;2024-03-07T09:29:19;19.03;;;8.90;;
75050;SDS011;63628;47.656;11.310;2024-03-07T09:31:46;20.87;;;9.23;;
75050;SDS011;63628;47.656;11.310;2024-03-07T09:34:14;13.20;;;5.27;;
75050;SDS011;63628;47.656;11.310;2024-03-07T09:36:42;15.97;;;7.80;;
75050;SDS011;63628;47.656;11.310;2024-03-07T09:39:10;22.73;;;9.47;;
75050;SDS011;63628;47.656;11.310;2024-03-07T09:41:38;19.48;;;9.95;;
75050;SDS011;63628;47.656;11.310;2024-03-07T09:44:08;18.95;;;8.77;;
75050;SDS011;63628;47.656;11.310;2024-03-07T09:46:36;8.20;;;4.30;;
75050;SDS011;63628;47.656;11.310;2024-03-07T09:49:04;5.57;;;3.00;;
75050;SDS011;63628;47.656;11.310;2024-03-07T09:51:32;6.50;;;3.17;;
75050;SDS011;63628;47.656;11.310;2024-03-07T09:54:01;6.47;;;2.92;;
75050;SDS011;63628;47.656;11.310;2024-03-07T09:56:29;16.77;;;7.73;;
75050;SDS011;63628;47.656;11.310;2024-03-07T09:59:03;6.00;;;2.97;;
75050;SDS011;63628;47.656;11.310;2024-03-07T10:01:30;5.07;;;2.53;;
75050;SDS011;63628;47.656;11.310;2024-03-07T10:06:36;5.00;;;2.27;;
75050;SDS011;63628;47.656;11.310;2024-03-07T10:26:21;13.60;;;7.33;;
75050;SDS011;63628;47.656;11.310;2024-03-07T10:28:47;12.60;;;7.20;;
75050;SDS011;63628;47.656;11.310;2024-03-07T10:31:27;12.33;;;6.10;;
75050;SDS011;63628;47.656;11.310;2024-03-07T10:33:57;32.60;;;22.63;;
75050;SDS011;63628;47.656;11.310;2024-03-07T10:36:25;15.97;;;9.50;;
75050;SDS011;63628;47.656;11.310;2024-03-07T10:38:52;13.10;;;7.77;;
75050;SDS011;63628;47.656;11.310;2024-03-07T10:41:23;13.05;;;6.95;;
75050;SDS011;63628;47.656;11.310;2024-03-07T10:43:55;20.37;;;12.73;;
75050;SDS011;63628;47.656;11.310;2024-03-07T10:46:24;13.43;;;7.87;;
75050;SDS011;63628;47.656;11.310;2024-03-07T10:48:53;12.73;;;7.17;;
75050;SDS011;63628;47.656;11.310;2024-03-07T10:51:26;8.87;;;4.60;;
75050;SDS011;63628;47.656;11.310;2024-03-07T10:54:02;9.87;;;5.23;;
75050;SDS011;63628;47.656;11.310;2024-03-07T10:56:52;12.07;;;6.37;;
75050;SDS011;63628;47.656;11.310;2024-03-07T10:59:32;10.23;;;5.80;;
75050;SDS011;63628;47.656;11.310;2024-03-07T11:02:04;9.82;;;5.45;;
75050;SDS011;63628;47.656;11.310;2024-03-07T11:04:42;6.73;;;4.07;;
75050;SDS011;63628;47.656;11.310;2024-03-07T11:07:11;9.63;;;4.77;;
75050;SDS011;63628;47.656;11.310;2024-03-07T11:09:38;7.63;;;4.33;;
75050;SDS011;63628;47.656;11.310;2024-03-07T11:12:09;8.67;;;5.23;;
75050;SDS011;63628;47.656;11.310;2024-03-07T11:14:38;8.67;;;4.33;;
75050;SDS011;63628;47.656;11.310;2024-03-07T11:17:07;8.20;;;4.70;;
75050;SDS011;63628;47.656;11.310;2024-03-07T11:19:35;8.57;;;4.80;;
75050;SDS011;63628;47.656;11.310;2024-03-07T11:22:05;20.87;;;7.53;;
75050;SDS011;63628;47.656;11.310;2024-03-07T11:24:43;11.40;;;5.20;;
75050;SDS011;63628;47.656;11.310;2024-03-07T11:27:13;9.13;;;5.23;;
75050;SDS011;63628;47.656;11.310;2024-03-07T11:29:42;13.60;;;6.20;;
75050;SDS011;63628;47.656;11.310;2024-03-07T11:32:14;13.53;;;6.47;;
75050;SDS011;63628;47.656;11.310;2024-03-07T11:34:41;11.07;;;6.17;;
75050;SDS011;63628;47.656;11.310;2024-03-07T11:37:09;8.73;;;4.50;;
75050;SDS011;63628;47.656;11.310;2024-03-07T11:39:44;11.20;;;5.40;;
75050;SDS011;63628;47.656;11.310;2024-03-07T11:42:20;10.13;;;5.57;;
75050;SDS011;63628;47.656;11.310;2024-03-07T11:44:49;24.27;;;12.67;;
75050;SDS011;63628;47.656;11.310;2024-03-07T11:47:17;27.70;;;13.90;;
75050;SDS011;63628;47.656;11.310;2024-03-07T11:49:45;27.00;;;14.17;;
75050;SDS011;63628;47.656;11.310;2024-03-07T11:52:15;21.83;;;12.90;;
75050;SDS011;63628;47.656;11.310;2024-03-07T11:54:43;26.37;;;14.40;;
75050;SDS011;63628;47.656;11.310;2024-03-07T11:57:14;27.90;;;13.43;;
75050;SDS011;63628;47.656;11.310;2024-03-07T11:59:43;27.05;;;14.00;;
75050;SDS011;63628;47.656;11.310;2024-03-07T12:02:12;25.13;;;13.33;;
75050;SDS011;63628;47.656;11.310;2024-03-07T12:04:41;16.08;;;9.82;;
75050;SDS011;63628;47.656;11.310;2024-03-07T12:07:08;23.13;;;12.53;;
75050;SDS011;63628;47.656;11.310;2024-03-07T12:09:37;25.87;;;14.37;;
75050;SDS011;63628;47.656;11.310;2024-03-07T12:12:04;17.73;;;10.20;;
75050;SDS011;63628;47.656;11.310;2024-03-07T12:14:32;26.70;;;14.40;;
75050;SDS011;63628;47.656;11.310;2024-03-07T12:17:02;26.77;;;14.70;;
75050;SDS011;63628;47.656;11.310;2024-03-07T12:19:32;24.20;;;13.37;;
75050;SDS011;63628;47.656;11.310;2024-03-07T12:21:59;20.43;;;12.53;;
75050;SDS011;63628;47.656;11.310;2024-03-07T12:24:27;22.10;;;12.93;;
75050;SDS011;63628;47.656;11.310;2024-03-07T12:27:04;24.77;;;12.57;;
75050;SDS011;63628;47.656;11.310;2024-03-07T12:29:31;24.97;;;13.60;;
75050;SDS011;63628;47.656;11.310;2024-03-07T12:31:59;19.30;;;11.50;;
75050;SDS011;63628;47.656;11.310;2024-03-07T12:34:27;19.77;;;12.17;;
75050;SDS011;63628;47.656;11.310;2024-03-07T12:36:56;16.37;;;10.23;;
75050;SDS011;63628;47.656;11.310;2024-03-07T12:39:23;19.50;;;10.73;;
75050;SDS011;63628;47.656;11.310;2024-03-07T12:41:51;17.57;;;10.73;;
75050;SDS011;63628;47.656;11.310;2024-03-07T12:44:21;19.20;;;11.67;;
75050;SDS011;63628;47.656;11.310;2024-03-07T12:46:50;18.27;;;11.23;;
75050;SDS011;63628;47.656;11.310;2024-03-07T12:49:22;12.93;;;8.30;;
75050;SDS011;63628;47.656;11.310;2024-03-07T12:51:54;11.27;;;6.53;;
75050;SDS011;63628;47.656;11.310;2024-03-07T12:54:21;18.03;;;11.27;;
75050;SDS011;63628;47.656;11.310;2024-03-07T12:56:48;12.37;;;8.00;;
75050;SDS011;63628;47.656;11.310;2024-03-07T12:59:18;16.63;;;10.25;;
75050;SDS011;63628;47.656;11.310;2024-03-07T13:01:45;18.13;;;11.87;;
75050;SDS011;63628;47.656;11.310;2024-03-07T13:04:14;18.57;;;12.07;;
75050;SDS011;63628;47.656;11.310;2024-03-07T13:06:40;22.50;;;12.87;;
75050;SDS011;63628;47.656;11.310;2024-03-07T13:09:10;17.63;;;11.53;;
75050;SDS011;63628;47.656;11.310;2024-03-07T13:11:37;17.50;;;10.37;;
75050;SDS011;63628;47.656;11.310;2024-03-07T13:16:33;14.33;;;9.10;;
75050;SDS011;63628;47.656;11.310;2024-03-07T13:19:00;15.13;;;8.93;;
75050;SDS011;63628;47.656;11.310;2024-03-07T13:21:31;12.03;;;6.80;;
75050;SDS011;63628;47.656;11.310;2024-03-07T13:23:58;7.80;;;5.50;;
75050;SDS011;63628;47.656;11.310;2024-03-07T13:26:28;10.63;;;6.07;;
75050;SDS011;63628;47.656;11.310;2024-03-07T13:28:58;8.13;;;5.60;;
75050;SDS011;63628;47.656;11.310;2024-03-07T13:31:28;8.90;;;5.40;;
75050;SDS011;63628;47.656;11.310;2024-03-07T13:33:56;13.83;;;9.10;;
75050;SDS011;63628;47.656;11.310;2024-03-07T13:36:22;9.63;;;5.90;;
75050;SDS011;63628;47.656;11.310;2024-03-07T13:38:51;8.53;;;5.17;;
75050;SDS011;63628;47.656;11.310;2024-03-07T13:41:19;8.20;;;5.37;;
75050;SDS011;63628;47.656;11.310;2024-03-07T13:43:47;20.73;;;12.27;;
75050;SDS011;63628;47.656;11.310;2024-03-07T13:46:14;8.38;;;5.03;;
75050;SDS011;63628;47.656;11.310;2024-03-07T13:48:44;14.48;;;10.20;;
75050;SDS011;63628;47.656;11.310;2024-03-07T13:51:10;15.83;;;9.93;;
75050;SDS011;63628;47.656;11.310;2024-03-07T13:53:41;17.53;;;11.10;;
75050;SDS011;63628;47.656;11.310;2024-03-07T13:56:23;21.53;;;10.43;;
75050;SDS011;63628;47.656;11.310;2024-03-07T13:59:20;21.60;;;12.03;;
75050;SDS011;63628;47.656;11.310;2024-03-07T14:02:08;19.40;;;10.93;;
75050;SDS011;63628;47.656;11.310;2024-03-07T14:05:03;12.23;;;7.70;;
75050;SDS011;63628;47.656;11.310;2024-03-07T14:08:00;16.33;;;9.57;;
75050;SDS011;63628;47.656;11.310;2024-03-07T14:11:08;10.10;;;5.77;;
75050;SDS011;63628;47.656;11.310;2024-03-07T14:13:59;15.60;;;10.43;;
75050;SDS011;63628;47.656;11.310;2024-03-07T14:23:14;22.33;;;13.57;;
75050;SDS011;63628;47.656;11.310;2024-03-07T14:26:02;16.70;;;10.53;;
75050;SDS011;63628;47.656;11.310;2024-03-07T14:29:03;11.60;;;6.77;;
75050;SDS011;63628;47.656;11.310;2024-03-07T14:31:43;18.27;;;10.93;;
75050;SDS011;63628;47.656;11.310;2024-03-07T14:34:19;15.97;;;9.53;;
75050;SDS011;63628;47.656;11.310;2024-03-07T14:37:04;21.67;;;12.50;;
75050;SDS011;63628;47.656;11.310;2024-03-07T14:39:43;14.90;;;9.60;;
75050;SDS011;63628;47.656;11.310;2024-03-07T14:42:14;19.70;;;11.00;;
75050;SDS011;63628;47.656;11.310;2024-03-07T14:44:42;15.93;;;10.70;;
75050;SDS011;63628;47.656;11.310;2024-03-07T14:47:12;16.00;;;10.03;;
75050;SDS011;63628;47.656;11.310;2024-03-07T14:49:42;20.70;;;11.30;;
75050;SDS011;63628;47.656;11.310;2024-03-07T14:52:08;19.33;;;10.43;;
75050;SDS011;63628;47.656;11.310;2024-03-07T14:54:38;17.48;;;11.30;;
75050;SDS011;63628;47.656;11.310;2024-03-07T14:57:05;17.03;;;9.60;;
75050;SDS011;63628;47.656;11.310;2024-03-07T14:59:33;17.97;;;10.70;;
75050;SDS011;63628;47.656;11.310;2024-03-07T15:02:00;16.63;;;10.03;;
75050;SDS011;63628;47.656;11.310;2024-03-07T15:04:29;17.88;;;10.70;;
75050;SDS011;63628;47.656;11.310;2024-03-07T15:07:00;22.73;;;11.88;;
75050;SDS011;63628;47.656;11.310;2024-03-07T15:09:29;16.80;;;10.93;;
75050;SDS011;63628;47.656;11.310;2024-03-07T15:11:56;22.03;;;11.97;;
75050;SDS011;63628;47.656;11.310;2024-03-07T15:14:24;21.83;;;12.57;;